Time;durP1;ratioP1;P1;durP2;ratioP2;P2;SDS_P1;SDS_P2;PMS_P1;PMS_P2;Temp;Humidity;BMP_temperature;BMP_pressure;BME280_temperature;BME280_humidity;BME280_pressure;Samples;Min_cycle;Max_cycle;Signal;HPM_P1;HPM_P2
2023/01/09 00:02:04;;;;;;;;;1.67;1.67;;;;;9.44;63.58;99115.56;5057926;28;45364;-50
2023/01/09 00:04:29;;;;;;;;;1.00;1.00;;;;;9.42;64.24;99129.69;5058003;28;45303;-56
2023/01/09 00:06:55;;;;;;;;;3.00;1.00;;;;;9.44;64.35;99130.47;5043785;28;45322;-51
2023/01/09 00:09:21;;;;;;;;;2.00;2.00;;;;;9.43;64.28;99127.00;5050205;28;45480;-56
2023/01/09 00:11:47;;;;;;;;;1.00;1.00;;;;;9.40;64.21;99118.44;5057486;28;45396;-55
2023/01/09 00:14:14;;;;;;;;;4.33;1.67;;;;;9.41;64.23;99120.16;5048772;28;45691;-53
2023/01/09 00:16:39;;;;;;;;;4.00;1.00;;;;;9.42;64.09;99138.41;5057695;28;45462;-56
2023/01/09 00:19:05;;;;;;;;;1.33;1.33;;;;;9.42;64.58;99141.03;5057495;28;45448;-56
2023/01/09 00:21:30;;;;;;;;;1.33;0.67;;;;;9.41;64.63;99135.88;5051848;28;45351;-58
2023/01/09 00:23:55;;;;;;;;;2.33;2.33;;;;;9.42;64.63;99134.94;5039553;28;45486;-56
2023/01/09 00:26:21;;;;;;;;;0.33;0.33;;;;;9.39;64.40;99141.22;5045810;28;47955;-60
2023/01/09 00:28:48;;;;;;;;;2.00;1.00;;;;;9.43;64.30;99127.00;5041992;28;45588;-52
2023/01/09 00:31:14;;;;;;;;;2.00;0.33;;;;;9.48;64.64;99137.22;5055727;28;48475;-58
2023/01/09 00:34:02;;;;;;;;;2.00;0.67;;;;;9.46;64.18;99133.88;5056861;28;45329;-55
2023/01/09 00:36:27;;;;;;;;;1.67;1.67;;;;;9.50;64.33;99132.75;5057607;28;45471;-56
2023/01/09 00:38:53;;;;;;;;;3.67;1.67;;;;;9.41;64.26;99134.09;5057377;28;45764;-52
2023/01/09 00:41:32;;;;;;;;;1.67;1.67;;;;;9.40;64.33;99132.44;5042886;28;45561;-60
2023/01/09 00:44:04;;;;;;;;;0.33;0.33;;;;;9.34;64.56;99124.03;5046848;28;45530;-61
2023/01/09 00:46:34;;;;;;;;;1.00;1.00;;;;;9.35;64.35;99123.94;5057062;28;45462;-58
2023/01/09 00:49:03;;;;;;;;;2.00;2.00;;;;;9.38;64.51;99118.53;5057300;28;45461;-54
2023/01/09 00:51:29;;;;;;;;;1.00;0.00;;;;;9.40;64.58;99131.56;5057036;28;45387;-53
2023/01/09 00:53:54;;;;;;;;;1.33;1.00;;;;;9.40;64.02;99142.06;5057059;28;45537;-51
2023/01/09 00:56:21;;;;;;;;;2.00;1.00;;;;;9.41;64.41;99143.75;5052964;28;45364;-56
2023/01/09 00:58:48;;;;;;;;;1.00;0.67;;;;;9.43;64.39;99149.75;5042087;28;45618;-54
2023/01/09 01:01:13;;;;;;;;;2.33;1.67;;;;;9.40;64.10;99145.53;5051119;28;45542;-58
2023/01/09 01:03:39;;;;;;;;;2.00;2.00;;;;;9.38;63.90;99150.03;5056561;28;45407;-57
2023/01/09 01:08:48;;;;;;;;;1.00;1.00;;;;;9.34;64.07;99148.47;5043419;28;45456;-58
2023/01/09 01:11:14;;;;;;;;;3.00;2.00;;;;;9.38;64.15;99142.16;5052956;28;45352;-57
2023/01/09 01:13:40;;;;;;;;;2.00;1.33;;;;;9.40;64.24;99153.41;5055935;28;45388;-57
2023/01/09 01:16:08;;;;;;;;;2.00;2.00;;;;;9.38;64.27;99144.78;5056872;28;45515;-54
2023/01/09 01:18:33;;;;;;;;;2.33;1.00;;;;;9.35;64.09;99159.81;5056404;28;45439;-58
2023/01/09 01:20:59;;;;;;;;;2.00;1.00;;;;;9.31;64.28;99145.19;5054622;28;46068;-57
2023/01/09 01:23:24;;;;;;;;;1.33;1.00;;;;;9.31;64.08;99147.81;5056352;28;45577;-55
2023/01/09 01:25:49;;;;;;;;;4.00;3.00;;;;;9.29;64.50;99145.25;5053661;28;45441;-59
2023/01/09 01:28:15;;;;;;;;;2.33;1.00;;;;;9.31;64.45;99148.66;5056689;28;45571;-53
2023/01/09 01:30:41;;;;;;;;;1.00;1.00;;;;;9.32;64.78;99147.69;5056341;28;45427;-56
2023/01/09 01:33:08;;;;;;;;;1.33;1.00;;;;;9.33;64.57;99149.41;5048926;28;45391;-57
2023/01/09 01:35:34;;;;;;;;;1.00;1.00;;;;;9.31;64.39;99156.50;5054325;28;45313;-54
2023/01/09 01:37:59;;;;;;;;;2.33;1.00;;;;;9.32;64.54;99171.31;5056365;28;45321;-51
2023/01/09 01:40:25;;;;;;;;;2.00;2.00;;;;;9.27;64.51;99173.38;5044857;28;46050;-55
2023/01/09 01:42:52;;;;;;;;;3.00;1.33;;;;;9.30;64.71;99175.81;5049586;28;45474;-57
2023/01/09 01:45:21;;;;;;;;;1.33;1.00;;;;;9.34;64.47;99179.13;5056301;28;45417;-56
2023/01/09 01:47:55;;;;;;;;;2.00;2.00;;;;;9.35;64.61;99176.44;5037332;28;45428;-54
2023/01/09 01:50:38;;;;;;;;;0.67;0.67;;;;;9.35;64.75;99173.81;5045572;28;45626;-55
2023/01/09 01:53:07;;;;;;;;;3.00;3.00;;;;;9.32;64.83;99180.97;5055863;28;45467;-55
2023/01/09 01:55:37;;;;;;;;;1.33;1.00;;;;;9.32;64.60;99180.97;5050485;28;45488;-54
2023/01/09 01:58:06;;;;;;;;;1.33;1.00;;;;;9.32;64.75;99179.19;5039490;28;45539;-60
2023/01/09 02:00:39;;;;;;;;;2.00;2.00;;;;;9.32;64.65;99175.72;5055581;28;46262;-54
2023/01/09 02:03:06;;;;;;;;;1.67;1.67;;;;;9.29;64.75;99176.72;5050734;28;45391;-52
2023/01/09 02:05:32;;;;;;;;;1.33;1.33;;;;;9.27;64.87;99174.22;5056031;28;45481;-56
2023/01/09 02:07:58;;;;;;;;;2.00;2.00;;;;;9.22;65.01;99175.38;5034687;28;45595;-55
2023/01/09 02:10:23;;;;;;;;;1.67;1.67;;;;;9.15;65.28;99172.22;5048042;28;45436;-51
2023/01/09 02:12:49;;;;;;;;;1.33;1.33;;;;;9.16;64.88;99178.31;5055223;28;45463;-55
2023/01/09 02:15:17;;;;;;;;;3.67;2.00;;;;;9.14;65.54;99174.94;5055857;28;45479;-53
2023/01/09 02:17:48;;;;;;;;;0.00;0.00;;;;;9.12;65.46;99182.03;5056000;28;45537;-55
2023/01/09 02:20:34;;;;;;;;;0.00;0.00;;;;;9.16;65.62;99175.69;5054997;28;45659;-57
2023/01/09 02:23:28;;;;;;;;;2.00;2.00;;;;;9.14;65.56;99180.19;5055766;28;45375;-59
2023/01/09 02:26:33;;;;;;;;;1.00;1.00;;;;;9.16;65.79;99179.19;5045960;28;45370;-53
2023/01/09 02:29:23;;;;;;;;;1.00;1.00;;;;;9.11;65.36;99191.69;5051548;28;45391;-55
2023/01/09 02:31:58;;;;;;;;;3.33;2.00;;;;;9.12;65.77;99172.38;5055363;28;46650;-53
2023/01/09 02:34:29;;;;;;;;;2.33;2.33;;;;;9.14;65.79;99193.28;5055532;28;45511;-56
2023/01/09 02:37:09;;;;;;;;;4.67;1.33;;;;;9.17;65.98;99199.22;5055172;28;45495;-53
2023/01/09 02:39:52;;;;;;;;;2.67;1.00;;;;;9.14;65.32;99202.00;5048825;28;45492;-55
2023/01/09 02:42:21;;;;;;;;;2.00;2.00;;;;;9.12;66.11;99195.13;5040856;28;46066;-54
2023/01/09 02:44:47;;;;;;;;;2.00;2.00;;;;;9.12;66.44;99211.72;5042243;28;45407;-59
2023/01/09 02:47:15;;;;;;;;;3.00;3.00;;;;;9.11;66.26;99217.03;5055323;28;45466;-53
2023/01/09 02:49:50;;;;;;;;;2.67;2.67;;;;;9.11;66.07;99223.16;5049863;28;45625;-53
2023/01/09 02:52:18;;;;;;;;;0.33;0.33;;;;;9.14;66.25;99212.50;5055380;28;45404;-51
2023/01/09 02:55:11;;;;;;;;;0.67;0.67;;;;;9.18;65.93;99211.41;5053878;28;45514;-55
2023/01/09 02:57:53;;;;;;;;;2.00;2.00;;;;;9.18;66.13;99207.94;5046913;28;45529;-51
2023/01/09 03:00:30;;;;;;;;;1.00;1.00;;;;;9.19;66.02;99207.03;5047121;28;45426;-55
2023/01/09 03:03:14;;;;;;;;;3.00;1.67;;;;;9.17;66.09;99188.72;5054370;28;46236;-58
2023/01/09 03:05:50;;;;;;;;;1.00;1.00;;;;;9.18;66.05;99195.66;5040134;28;45413;-56
2023/01/09 03:08:19;;;;;;;;;2.00;2.00;;;;;9.19;66.08;99192.13;5039005;28;45384;-59
2023/01/09 03:10:54;;;;;;;;;1.00;1.00;;;;;9.21;65.75;99205.13;5047717;28;45554;-58
2023/01/09 03:13:23;;;;;;;;;2.67;1.00;;;;;9.23;66.03;99205.91;5054827;28;45526;-58
2023/01/09 03:15:52;;;;;;;;;1.00;1.00;;;;;9.25;66.01;99207.53;5050946;28;45399;-54
2023/01/09 03:18:23;;;;;;;;;1.00;0.33;;;;;9.26;66.09;99216.25;5039594;28;45414;-53
2023/01/09 03:20:50;;;;;;;;;1.67;1.00;;;;;9.29;65.76;99226.56;5058298;28;45308;-55
2023/01/09 03:23:15;;;;;;;;;4.00;2.33;;;;;9.29;66.13;99229.19;5056146;28;46437;-52
2023/01/09 03:25:41;;;;;;;;;2.33;1.33;;;;;9.26;66.05;99218.88;5052683;28;45356;-57
2023/01/09 03:28:14;;;;;;;;;1.67;1.67;;;;;9.20;65.77;99225.28;5058721;28;45379;-52
2023/01/09 03:30:40;;;;;;;;;1.67;1.67;;;;;9.25;65.99;99227.69;5057587;28;45380;-57
2023/01/09 03:33:05;;;;;;;;;3.00;1.00;;;;;9.27;66.06;99234.53;5053231;28;45441;-51
2023/01/09 03:35:30;;;;;;;;;0.67;0.00;;;;;9.29;65.73;99234.44;5058130;28;45323;-55
2023/01/09 03:37:57;;;;;;;;;1.00;1.00;;;;;9.26;65.85;99224.13;5058409;28;45343;-57
2023/01/09 03:40:23;;;;;;;;;2.00;2.00;;;;;9.29;65.56;99226.56;5046898;28;45621;-51
2023/01/09 03:42:48;;;;;;;;;1.67;1.33;;;;;9.31;65.62;99234.38;5044828;28;46124;-56
2023/01/09 03:45:13;;;;;;;;;1.00;0.00;;;;;9.25;65.83;99225.91;5048648;28;52272;-58
2023/01/09 03:47:39;;;;;;;;;4.00;1.00;;;;;9.26;65.86;99229.38;5039614;28;45595;-53
2023/01/09 03:50:05;;;;;;;;;3.67;1.00;;;;;9.28;66.28;99232.75;5055364;28;45427;-52
2023/01/09 03:52:31;;;;;;;;;2.00;1.00;;;;;9.28;65.35;99236.22;5050429;28;46569;-58
2023/01/09 03:54:56;;;;;;;;;3.67;1.00;;;;;9.33;65.69;99238.63;5043387;28;45548;-54
2023/01/09 03:57:23;;;;;;;;;1.67;1.33;;;;;9.35;65.58;99242.03;5058487;28;45478;-55
2023/01/09 03:59:48;;;;;;;;;1.00;1.00;;;;;9.33;65.44;99238.63;5058016;28;45443;-57
2023/01/09 04:02:14;;;;;;;;;2.00;2.00;;;;;9.37;65.12;99234.91;5053450;28;46203;-56
2023/01/09 04:04:39;;;;;;;;;2.33;2.33;;;;;9.35;65.92;99236.78;5058024;28;45364;-54
2023/01/09 04:07:04;;;;;;;;;0.33;0.33;;;;;9.32;65.19;99239.53;5057888;28;45415;-54
2023/01/09 04:09:30;;;;;;;;;2.67;1.00;;;;;9.34;65.52;99250.81;5057749;28;46015;-55
2023/01/09 04:11:55;;;;;;;;;1.00;1.00;;;;;9.36;65.58;99264.69;5057780;28;45968;-57
2023/01/09 04:14:20;;;;;;;;;0.33;0.33;;;;;9.35;65.44;99273.50;5051387;28;45461;-57
2023/01/09 04:16:46;;;;;;;;;1.00;1.00;;;;;9.33;65.61;99272.72;5048578;28;45534;-54
2023/01/09 04:19:11;;;;;;;;;3.00;3.00;;;;;9.32;65.52;99276.25;5057489;28;45372;-56
2023/01/09 04:21:36;;;;;;;;;2.00;2.00;;;;;9.34;65.82;99287.53;5057390;28;46066;-55
2023/01/09 04:24:02;;;;;;;;;1.33;1.33;;;;;9.34;65.60;99287.53;5054442;28;45508;-51
2023/01/09 04:26:27;;;;;;;;;3.67;3.67;;;;;9.38;65.28;99289.09;5057825;28;45556;-55
2023/01/09 04:28:53;;;;;;;;;2.00;2.00;;;;;9.35;65.23;99293.63;5051061;28;45527;-57
2023/01/09 04:31:19;;;;;;;;;2.00;2.00;;;;;9.40;65.46;99295.13;5035970;28;45714;-56
2023/01/09 04:33:44;;;;;;;;;4.00;1.33;;;;;9.42;65.45;99284.53;5051999;28;45435;-55
2023/01/09 04:36:09;;;;;;;;;2.00;2.00;;;;;9.44;65.78;99280.88;5057423;28;45512;-56
2023/01/09 04:38:34;;;;;;;;;1.00;1.00;;;;;9.46;65.56;99284.28;5056337;28;45626;-59
2023/01/09 04:41:00;;;;;;;;;2.67;1.33;;;;;9.46;65.57;99275.56;5055830;28;45529;-56
2023/01/09 04:43:25;;;;;;;;;2.67;1.00;;;;;9.47;65.51;99285.13;5040658;28;45372;-57
2023/01/09 04:45:51;;;;;;;;;2.00;1.00;;;;;9.41;65.91;99275.81;5053931;28;45778;-51
2023/01/09 04:48:16;;;;;;;;;2.00;2.00;;;;;9.45;65.79;99284.34;5057437;28;45489;-54
2023/01/09 04:50:41;;;;;;;;;2.00;2.00;;;;;9.25;66.10;99251.28;5055580;28;45515;-56
2023/01/09 04:53:07;;;;;;;;;3.00;2.33;;;;;9.47;65.61;99290.38;5042783;28;45518;-55
2023/01/09 04:55:32;;;;;;;;;4.33;1.33;;;;;9.44;65.95;99280.88;5035757;28;45485;-54
2023/01/09 04:57:58;;;;;;;;;2.00;2.00;;;;;9.49;65.50;99305.13;5053060;28;45652;-53
2023/01/09 05:00:23;;;;;;;;;3.00;2.00;;;;;9.51;65.45;99298.03;5053926;28;45530;-53
2023/01/09 05:02:48;;;;;;;;;3.67;1.33;;;;;9.54;65.50;99288.28;5056192;28;45506;-50
2023/01/09 05:05:14;;;;;;;;;3.00;3.00;;;;;9.52;65.22;99289.22;5056889;28;45396;-53
2023/01/09 05:07:39;;;;;;;;;3.00;1.00;;;;;9.52;65.14;99281.34;5056369;28;45289;-55
2023/01/09 05:10:05;;;;;;;;;0.33;0.33;;;;;9.54;65.66;99288.28;5056700;28;45432;-55
2023/01/09 05:12:33;;;;;;;;;1.67;1.67;;;;;9.52;65.25;99289.22;5054084;28;45402;-57
2023/01/09 05:14:58;;;;;;;;;1.67;1.00;;;;;9.51;65.53;99295.41;5035816;28;45539;-55
2023/01/09 05:17:24;;;;;;;;;2.67;2.67;;;;;9.46;65.29;99305.28;5056609;28;45658;-55
2023/01/09 05:19:49;;;;;;;;;0.67;0.33;;;;;9.49;65.33;99304.28;5052170;28;46109;-58
2023/01/09 05:22:14;;;;;;;;;1.00;1.00;;;;;9.47;65.16;99300.88;5056755;28;45479;-56
2023/01/09 05:24:40;;;;;;;;;1.67;1.67;;;;;9.45;65.50;99311.44;5056734;28;45430;-54
2023/01/09 05:27:05;;;;;;;;;2.67;2.00;;;;;9.49;65.45;99314.78;5054880;28;45426;-56
2023/01/09 05:29:31;;;;;;;;;3.00;1.33;;;;;9.44;65.46;99307.13;5056721;28;46171;-53
2023/01/09 05:31:56;;;;;;;;;2.00;2.00;;;;;9.47;65.41;99314.00;5055066;28;45492;-53
2023/01/09 05:34:22;;;;;;;;;3.00;2.00;;;;;9.46;65.33;99318.41;5056703;28;45505;-55
2023/01/09 05:36:47;;;;;;;;;5.00;2.67;;;;;9.46;65.55;99338.56;5054698;28;45605;-54
2023/01/09 05:39:12;;;;;;;;;1.00;1.00;;;;;9.47;64.87;99345.50;5038463;28;45611;-54
2023/01/09 05:41:38;;;;;;;;;0.00;0.00;;;;;9.45;64.97;99347.34;5051482;28;45497;-54
2023/01/09 05:44:03;;;;;;;;;0.67;0.67;;;;;9.45;65.10;99336.84;5056014;28;45466;-55
2023/01/09 05:46:30;;;;;;;;;0.00;0.00;;;;;9.47;65.11;99345.50;5049045;28;45520;-55
2023/01/09 05:48:55;;;;;;;;;1.33;1.00;;;;;9.48;64.98;99342.81;5056314;28;45351;-57
2023/01/09 05:51:21;;;;;;;;;1.33;1.33;;;;;9.48;64.39;99347.19;5051417;28;45479;-58
2023/01/09 05:53:46;;;;;;;;;0.00;0.00;;;;;9.48;64.41;99345.44;5038438;28;45456;-54
2023/01/09 05:56:12;;;;;;;;;0.00;0.00;;;;;9.51;64.06;99349.66;5034880;28;45376;-56
2023/01/09 05:58:38;;;;;;;;;0.00;0.00;;;;;9.47;63.85;99343.72;5056071;28;45387;-56
2023/01/09 06:01:03;;;;;;;;;0.67;0.67;;;;;9.51;64.12;99363.63;5050277;28;45421;-56
2023/01/09 06:03:29;;;;;;;;;0.00;0.00;;;;;9.56;64.27;99354.66;5056280;28;45416;-58
2023/01/09 06:05:54;;;;;;;;;1.33;1.00;;;;;9.57;63.70;99367.72;5056250;28;45557;-49
2023/01/09 06:08:19;;;;;;;;;0.00;0.00;;;;;9.53;63.50;99368.78;5054470;28;46064;-51
2023/01/09 06:10:46;;;;;;;;;0.67;0.67;;;;;9.50;63.20;99359.28;5041209;28;45433;-54
2023/01/09 06:13:11;;;;;;;;;1.67;0.33;;;;;9.55;63.61;99361.69;5052185;28;45391;-56
2023/01/09 06:15:36;;;;;;;;;0.00;0.00;;;;;9.56;63.19;99362.53;5050372;28;45693;-54
2023/01/09 06:18:03;;;;;;;;;0.33;0.00;;;;;9.56;62.76;99355.50;5045461;28;49148;-55
2023/01/09 06:20:29;;;;;;;;;2.00;2.00;;;;;9.57;62.85;99361.63;5044907;28;45676;-56
2023/01/09 06:22:54;;;;;;;;;1.00;1.00;;;;;9.60;62.70;99358.84;5055730;28;45444;-59
2023/01/09 06:25:19;;;;;;;;;2.00;1.00;;;;;9.61;61.88;99371.88;5046489;28;45698;-56
2023/01/09 06:27:45;;;;;;;;;1.00;1.00;;;;;9.58;62.33;99385.16;5055483;28;45508;-51
2023/01/09 06:30:11;;;;;;;;;3.00;1.33;;;;;9.59;62.58;99392.13;5045846;28;45509;-53
2023/01/09 06:32:36;;;;;;;;;1.00;1.00;;;;;9.58;62.06;99392.19;5055436;28;45482;-55
2023/01/09 06:35:02;;;;;;;;;1.67;0.33;;;;;9.54;62.26;99391.50;5055326;28;45634;-56
2023/01/09 06:37:27;;;;;;;;;0.67;0.00;;;;;9.54;61.74;99403.75;5055676;28;46230;-57
2023/01/09 06:39:53;;;;;;;;;1.00;0.00;;;;;9.55;62.06;99406.31;5052594;28;45363;-51
2023/01/09 06:42:19;;;;;;;;;2.00;0.00;;;;;9.54;61.72;99398.50;5050563;28;45573;-59
2023/01/09 06:44:44;;;;;;;;;1.67;0.67;;;;;9.58;61.92;99413.19;5050937;28;45450;-56
2023/01/09 06:47:09;;;;;;;;;0.67;0.67;;;;;9.60;61.28;99422.69;5055183;28;45482;-58
2023/01/09 06:49:35;;;;;;;;;2.00;1.00;;;;;9.58;61.41;99406.16;5055506;28;45442;-58
2023/01/09 06:52:04;;;;;;;;;0.33;0.00;;;;;9.57;61.26;99420.22;5037408;28;45400;-55
2023/01/09 06:54:29;;;;;;;;;0.00;0.00;;;;;9.55;61.48;99429.09;5038543;28;45497;-58
2023/01/09 06:56:55;;;;;;;;;0.67;0.33;;;;;9.51;61.13;99433.66;5058188;28;46619;-57
2023/01/09 06:59:20;;;;;;;;;0.00;0.00;;;;;9.55;61.15;99426.47;5050940;28;45471;-53
2023/01/09 07:01:45;;;;;;;;;1.00;1.00;;;;;9.51;60.99;99438.91;5050804;28;45409;-59
2023/01/09 07:04:11;;;;;;;;;0.00;0.00;;;;;9.50;61.40;99440.66;5051423;28;45381;-56
2023/01/09 07:06:37;;;;;;;;;0.00;0.00;;;;;9.50;60.59;99452.94;5053227;28;45455;-52
2023/01/09 07:09:04;;;;;;;;;2.00;0.00;;;;;9.48;61.46;99442.53;5058816;28;45474;-58
2023/01/09 07:11:30;;;;;;;;;0.00;0.00;;;;;9.50;60.47;99452.94;5058550;28;45510;-57
2023/01/09 07:13:55;;;;;;;;;1.00;0.00;;;;;9.47;60.95;99463.59;5049477;28;45431;-52
2023/01/09 07:16:20;;;;;;;;;1.67;0.00;;;;;9.36;60.39;99451.00;5057484;28;46197;-60
2023/01/09 07:18:45;;;;;;;;;0.00;0.00;;;;;9.39;60.89;99450.84;5042257;28;45558;-53
2023/01/09 07:21:11;;;;;;;;;1.00;1.00;;;;;9.37;60.75;99452.69;5049006;28;45439;-55
2023/01/09 07:23:36;;;;;;;;;0.00;0.00;;;;;9.36;60.79;99450.16;5038975;28;45492;-55
2023/01/09 07:26:02;;;;;;;;;0.00;0.00;;;;;9.35;60.98;99451.94;5042259;28;45691;-58
2023/01/09 07:28:27;;;;;;;;;1.00;1.00;;;;;9.28;60.14;99461.84;5053943;28;45467;-54
2023/01/09 07:30:52;;;;;;;;;0.33;0.00;;;;;9.32;60.80;99452.06;5051367;28;45474;-53
2023/01/09 07:33:18;;;;;;;;;0.00;0.00;;;;;9.36;60.86;99456.25;5057503;28;45740;-52
2023/01/09 07:35:43;;;;;;;;;0.33;0.00;;;;;9.35;60.30;99449.31;5049475;28;47052;-59
2023/01/09 07:38:08;;;;;;;;;0.33;0.33;;;;;9.38;60.54;99451.78;5050136;28;45431;-55
2023/01/09 07:40:34;;;;;;;;;0.00;0.00;;;;;9.38;60.42;99458.81;5056322;28;45415;-55
2023/01/09 07:42:59;;;;;;;;;0.67;0.00;;;;;9.36;60.85;99453.63;5039859;28;45454;-52
2023/01/09 07:45:25;;;;;;;;;0.00;0.00;;;;;9.35;60.30;99457.19;5049104;28;45474;-58
2023/01/09 07:47:51;;;;;;;;;0.33;0.33;;;;;9.35;60.18;99480.78;5045915;28;45416;-52
2023/01/09 07:50:17;;;;;;;;;0.00;0.00;;;;;9.34;60.61;99480.84;5058187;28;45424;-54
2023/01/09 07:52:44;;;;;;;;;0.00;0.00;;;;;9.29;60.41;99484.56;5040677;28;45785;-52
2023/01/09 07:55:09;;;;;;;;;1.00;1.00;;;;;9.35;60.39;99493.03;5049234;28;45762;-53
2023/01/09 07:57:35;;;;;;;;;1.67;0.67;;;;;9.35;60.54;99496.53;5054824;28;45548;-51
2023/01/09 08:00:02;;;;;;;;;1.00;1.00;;;;;9.34;60.18;99507.09;5057540;28;45464;-53
2023/01/09 08:02:27;;;;;;;;;0.00;0.00;;;;;9.33;60.16;99514.13;5057484;28;45600;-50
2023/01/09 08:04:53;;;;;;;;;1.67;0.00;;;;;9.29;60.24;99507.31;5054950;28;45387;-56
2023/01/09 08:07:18;;;;;;;;;0.00;0.00;;;;;9.28;60.54;99518.72;5056882;28;53400;-54
2023/01/09 08:09:43;;;;;;;;;1.00;0.00;;;;;9.27;60.38;99527.53;5057243;28;45394;-56
2023/01/09 08:12:09;;;;;;;;;0.00;0.00;;;;;9.25;60.47;99519.72;5057528;28;45457;-55
2023/01/09 08:14:34;;;;;;;;;2.00;1.00;;;;;9.31;60.38;99517.75;5056973;28;46650;-55
2023/01/09 08:17:01;;;;;;;;;0.00;0.00;;;;;9.27;60.30;99525.75;5057117;28;45525;-51
2023/01/09 08:19:26;;;;;;;;;1.00;1.00;;;;;9.27;60.74;99522.28;5057385;28;45449;-56
2023/01/09 08:21:52;;;;;;;;;0.00;0.00;;;;;9.32;60.40;99532.53;5057172;28;45645;-54
2023/01/09 08:24:17;;;;;;;;;0.00;0.00;;;;;9.35;60.08;99533.28;5056748;28;52785;-52
2023/01/09 08:26:42;;;;;;;;;0.00;0.00;;;;;9.29;59.96;99523.91;5057044;28;45418;-56
2023/01/09 08:29:08;;;;;;;;;2.67;1.33;;;;;9.36;60.10;99545.47;5057370;28;45473;-49
2023/01/09 08:31:33;;;;;;;;;1.00;0.00;;;;;9.35;60.08;99562.13;5057111;28;45375;-56
2023/01/09 08:33:58;;;;;;;;;0.00;0.00;;;;;9.28;60.20;99556.31;5055134;28;46149;-51
2023/01/09 08:36:24;;;;;;;;;0.00;0.00;;;;;9.25;59.93;99551.22;5057077;28;45404;-54
2023/01/09 08:38:49;;;;;;;;;0.33;0.33;;;;;9.22;60.45;99550.50;5056979;28;45352;-57
2023/01/09 08:49:26;;;;;;;;;0.00;0.00;;;;;9.21;60.52;99554.88;5056800;28;45333;-53
2023/01/09 08:51:51;;;;;;;;;1.00;1.00;;;;;9.22;60.39;99556.59;5047522;28;45449;-54
2023/01/09 08:54:16;;;;;;;;;0.00;0.00;;;;;9.21;60.44;99572.41;5051317;28;45503;-52
2023/01/09 08:56:42;;;;;;;;;1.00;1.00;;;;;9.22;60.44;99574.97;5056700;28;45427;-56
2023/01/09 08:59:08;;;;;;;;;0.00;0.00;;;;;9.21;60.45;99577.66;5056877;28;45713;-52
2023/01/09 09:01:34;;;;;;;;;0.00;0.00;;;;;9.22;59.99;99589.88;5056519;28;45351;-55
2023/01/09 09:03:59;;;;;;;;;1.00;0.00;;;;;9.17;59.58;99578.72;5054714;28;45522;-54
2023/01/09 09:06:24;;;;;;;;;0.00;0.00;;;;;9.14;60.01;99599.84;5056210;28;45557;-52
2023/01/09 09:08:50;;;;;;;;;0.67;0.00;;;;;9.18;59.88;99594.38;5056457;28;45450;-55
2023/01/09 09:11:15;;;;;;;;;0.00;0.00;;;;;9.18;59.94;99607.50;5056213;28;45364;-56
2023/01/09 09:13:40;;;;;;;;;1.00;1.00;;;;;9.15;60.25;99612.88;5055685;28;56465;-52
2023/01/09 09:16:06;;;;;;;;;1.00;1.00;;;;;9.17;60.26;99607.59;5055767;28;51909;-55
2023/01/09 09:18:31;;;;;;;;;1.67;1.00;;;;;9.11;59.79;99619.22;5055737;28;45414;-52
2023/01/09 09:20:56;;;;;;;;;2.00;0.00;;;;;9.09;59.87;99614.94;5056387;28;45396;-60
2023/01/09 09:23:22;;;;;;;;;0.00;0.00;;;;;8.96;60.37;99633.84;5055992;28;45442;-57
2023/01/09 09:25:48;;;;;;;;;2.00;0.33;;;;;9.01;60.78;99644.13;5038132;28;45490;-49
2023/01/09 09:28:13;;;;;;;;;1.00;1.00;;;;;8.98;60.89;99642.50;5056042;28;45458;-54
2023/01/09 09:30:38;;;;;;;;;0.00;0.00;;;;;8.96;61.08;99652.19;5056216;28;45435;-53
2023/01/09 09:33:04;;;;;;;;;1.00;1.00;;;;;9.02;60.80;99641.44;5055838;28;46200;-56
2023/01/09 09:35:32;;;;;;;;;2.00;0.00;;;;;9.07;60.62;99647.31;5040443;28;45397;-55
2023/01/09 09:38:01;;;;;;;;;0.00;0.00;;;;;9.10;60.68;99648.97;5056005;28;45498;-57
2023/01/09 09:40:55;;;;;;;;;0.33;0.33;;;;;9.14;60.50;99660.19;5037711;28;45491;-58
2023/01/09 09:46:41;;;;;;;;;0.67;0.00;;;;;9.15;60.14;99670.59;5056149;28;45478;-57
2023/01/09 09:49:25;;;;;;;;;1.00;1.00;;;;;9.07;60.58;99676.19;5056127;28;45378;-51
2023/01/09 09:52:09;;;;;;;;;1.00;1.00;;;;;9.12;60.48;99680.38;5046970;28;45482;-57
2023/01/09 09:54:48;;;;;;;;;0.00;0.00;;;;;9.09;60.74;99694.47;5052873;28;45527;-59
2023/01/09 09:57:18;;;;;;;;;1.00;1.00;;;;;9.11;60.84;99702.25;5055402;28;45403;-52
2023/01/09 09:59:47;;;;;;;;;0.67;0.67;;;;;9.06;60.76;99703.34;5056159;28;45436;-53
2023/01/09 10:02:49;;;;;;;;;0.00;0.00;;;;;9.13;60.51;99703.91;5055665;28;45514;-56
2023/01/09 10:05:32;;;;;;;;;0.00;0.00;;;;;9.12;60.61;99696.13;5027843;28;45643;-57
2023/01/09 10:08:04;;;;;;;;;0.00;0.00;;;;;9.25;60.35;99713.88;5034589;28;45407;-58
2023/01/09 10:10:40;;;;;;;;;1.00;0.00;;;;;9.29;60.46;99723.31;5055503;28;45703;-55
2023/01/09 10:16:12;;;;;;;;;0.00;0.00;;;;;9.41;59.82;99726.31;5055250;28;45414;-59
2023/01/09 10:19:28;;;;;;;;;1.33;1.00;;;;;9.40;59.55;99740.34;5042429;28;45565;-54
2023/01/09 10:22:02;;;;;;;;;2.67;0.67;;;;;9.40;59.67;99735.09;4973912;28;45481;-56
2023/01/09 10:24:43;;;;;;;;;0.00;0.00;;;;;9.28;59.84;99731.25;4973549;28;45435;-52
2023/01/09 10:27:22;;;;;;;;;0.00;0.00;;;;;9.34;60.37;99757.22;5022006;28;46091;-51
2023/01/09 10:29:54;;;;;;;;;1.00;1.00;;;;;9.36;59.52;99744.88;5054578;28;45477;-53
2023/01/09 10:32:47;;;;;;;;;1.00;0.00;;;;;9.34;59.93;99765.09;5055202;28;45549;-54
2023/01/09 10:35:33;;;;;;;;;0.00;0.00;;;;;9.34;59.54;99751.97;5053551;28;45316;-54
2023/01/09 10:38:01;;;;;;;;;0.00;0.00;;;;;9.32;59.66;99755.56;5054789;28;45395;-59
2023/01/09 10:40:42;;;;;;;;;1.00;0.00;;;;;9.43;59.88;99755.94;5054518;28;45545;-53
2023/01/09 10:43:16;;;;;;;;;0.00;0.00;;;;;9.44;59.25;99766.41;5055175;28;45385;-56
2023/01/09 10:45:51;;;;;;;;;0.00;0.00;;;;;9.49;59.79;99764.41;5054941;28;45468;-57
2023/01/09 10:48:36;;;;;;;;;0.00;0.00;;;;;9.51;59.06;99775.72;5051587;28;45538;-49
2023/01/09 10:51:16;;;;;;;;;0.00;0.00;;;;;9.42;58.71;99760.34;5038650;28;45404;-55
2023/01/09 10:53:46;;;;;;;;;1.67;0.67;;;;;9.47;58.72;99774.13;5044779;28;45375;-56
2023/01/09 10:56:31;;;;;;;;;1.33;0.33;;;;;9.45;58.81;99773.34;5054612;28;45477;-54
2023/01/09 10:58:57;;;;;;;;;0.00;0.00;;;;;9.50;58.58;99788.91;5053926;28;45510;-57
2023/01/09 11:01:31;;;;;;;;;0.00;0.00;;;;;9.49;58.10;99779.31;5035820;28;45443;-49
2023/01/09 11:04:00;;;;;;;;;1.00;1.00;;;;;9.48;58.58;99786.34;5054753;28;45528;-54
2023/01/09 11:06:43;;;;;;;;;0.00;0.00;;;;;9.49;58.32;99776.69;5054288;28;45521;-58
2023/01/09 11:09:08;;;;;;;;;0.33;0.33;;;;;9.52;58.33;99793.16;5053932;28;46349;-59
2023/01/09 11:11:36;;;;;;;;;3.00;3.00;;;;;9.52;58.78;99785.28;5053632;28;45438;-56
2023/01/09 11:14:05;;;;;;;;;3.33;2.33;;;;;9.65;58.63;99790.00;5036688;28;45431;-56
2023/01/09 11:16:30;;;;;;;;;0.00;0.00;;;;;9.66;58.08;99789.06;5052255;28;45480;-54
2023/01/09 11:18:59;;;;;;;;;0.00;0.00;;;;;9.65;58.25;99787.38;5053697;28;45459;-60
2023/01/09 11:21:34;;;;;;;;;3.33;1.00;;;;;9.67;57.84;99781.13;5054360;28;45540;-55
2023/01/09 11:24:20;;;;;;;;;0.67;0.67;;;;;9.66;57.50;99789.91;5036206;28;46340;-54
2023/01/09 11:27:11;;;;;;;;;0.67;0.00;;;;;9.62;58.31;99780.50;5054179;28;45563;-56
2023/01/09 11:29:37;;;;;;;;;0.00;0.00;;;;;9.58;58.17;99781.53;5041763;28;45534;-60
2023/01/09 11:32:02;;;;;;;;;0.00;0.00;;;;;9.61;58.30;99785.78;5035334;28;45886;-56
2023/01/09 11:34:31;;;;;;;;;0.33;0.00;;;;;9.66;58.29;99786.44;5054352;28;45404;-57
2023/01/09 11:37:12;;;;;;;;;1.33;1.33;;;;;9.69;58.26;99788.94;5054065;28;45404;-55
2023/01/09 11:39:46;;;;;;;;;0.00;0.00;;;;;9.67;58.14;99786.38;5053985;28;45403;-58
2023/01/09 11:45:14;;;;;;;;;3.00;0.00;;;;;9.68;57.82;99801.22;5057489;28;45490;-58
2023/01/09 11:47:40;;;;;;;;;0.00;0.00;;;;;9.69;57.88;99800.28;5057287;28;45533;-56
2023/01/09 11:50:19;;;;;;;;;1.00;1.00;;;;;9.68;58.23;99798.59;5057321;28;45578;-56
2023/01/09 11:52:45;;;;;;;;;0.00;0.00;;;;;9.64;57.81;99818.00;5051784;28;45523;-57
2023/01/09 11:55:16;;;;;;;;;4.33;1.00;;;;;9.65;57.80;99803.97;5049975;28;45449;-58
2023/01/09 11:57:42;;;;;;;;;1.00;0.00;;;;;9.67;58.07;99793.38;5053320;28;45316;-59
2023/01/09 12:00:27;;;;;;;;;2.00;1.00;;;;;9.73;58.04;99801.00;5054429;28;46168;-57
2023/01/09 12:03:24;;;;;;;;;1.00;0.00;;;;;9.76;57.22;99805.28;5038200;28;45567;-55
2023/01/09 12:06:02;;;;;;;;;2.00;1.00;;;;;9.78;57.37;99841.06;5024475;28;45635;-55
2023/01/09 12:08:33;;;;;;;;;1.00;1.00;;;;;9.76;57.15;99790.38;5056271;28;45536;-59
2023/01/09 12:11:08;;;;;;;;;1.00;0.00;;;;;9.87;57.31;99808.28;5057676;28;45369;-57